Time;durP1;ratioP1;P1;durP2;ratioP2;P2;SDS_P1;SDS_P2;PMS_P1;PMS_P2;Temp;Humidity;BMP_temperature;BMP_pressure;BME280_temperature;BME280_humidity;BME280_pressure;Samples;Min_cycle;Max_cycle;Signal;HPM_P1;HPM_P2
2023/10/27 00:00:38;;;;;;;0.98;0.88;;;9.20;99.90;;;;;;5070209;28;20042;-67
2023/10/27 00:03:04;;;;;;;1.40;0.90;;;9.20;99.90;;;;;;5082140;28;20047;-67
2023/10/27 00:05:30;;;;;;;2.90;1.73;;;9.20;99.90;;;;;;5081464;28;20765;-67
2023/10/27 00:07:56;;;;;;;4.57;1.55;;;9.20;99.90;;;;;;5110684;28;20044;-67
2023/10/27 00:10:22;;;;;;;3.40;1.10;;;9.20;99.90;;;;;;5088255;28;20032;-67
2023/10/27 00:12:48;;;;;;;1.00;1.00;;;9.20;99.90;;;;;;5116336;27;20043;-68
2023/10/27 00:15:14;;;;;;;4.68;1.73;;;9.20;99.90;;;;;;5089775;27;20048;-67
2023/10/27 00:17:39;;;;;;;2.25;1.27;;;9.20;99.90;;;;;;5087363;28;20385;-68
2023/10/27 00:20:06;;;;;;;1.25;1.17;;;9.20;99.90;;;;;;5084943;27;20043;-67
2023/10/27 00:22:33;;;;;;;2.50;0.77;;;9.20;99.90;;;;;;5096292;27;20035;-67
2023/10/27 00:24:59;;;;;;;4.00;0.57;;;9.20;99.90;;;;;;5086441;28;20421;-66
2023/10/27 00:27:25;;;;;;;9.30;1.58;;;9.20;99.90;;;;;;5117240;27;20096;-67
2023/10/27 00:29:50;;;;;;;1.50;1.00;;;9.20;99.90;;;;;;5114604;27;20040;-68
2023/10/27 00:32:16;;;;;;;1.85;1.13;;;9.20;99.90;;;;;;5093328;27;20039;-67
2023/10/27 00:34:42;;;;;;;2.20;0.85;;;9.30;99.90;;;;;;5084893;27;20039;-67
2023/10/27 00:37:07;;;;;;;1.95;0.70;;;9.20;99.90;;;;;;5086259;27;20035;-67
2023/10/27 00:39:33;;;;;;;3.47;1.67;;;9.20;99.90;;;;;;5086143;27;20122;-68
2023/10/27 00:41:59;;;;;;;0.57;0.57;;;9.20;99.90;;;;;;5088887;27;20038;-67
2023/10/27 00:44:24;;;;;;;5.28;2.15;;;9.30;99.90;;;;;;5098525;27;20035;-67
2023/10/27 00:46:51;;;;;;;6.05;1.08;;;9.20;99.90;;;;;;5090606;27;20050;-68
2023/10/27 00:49:17;;;;;;;2.38;0.65;;;9.30;99.90;;;;;;5086082;27;20390;-67
2023/10/27 00:51:46;;;;;;;1.55;0.52;;;9.30;99.90;;;;;;5075484;27;20068;-67
2023/10/27 00:54:15;;;;;;;1.70;1.65;;;9.30;99.90;;;;;;5087485;28;20055;-68
2023/10/27 00:56:41;;;;;;;3.38;1.95;;;9.30;99.90;;;;;;5103723;27;20498;-68
2023/10/27 00:59:08;;;;;;;1.70;1.30;;;9.30;99.90;;;;;;5083701;28;20078;-67
2023/10/27 01:01:34;;;;;;;1.00;0.73;;;9.30;99.90;;;;;;5085873;28;20592;-67
2023/10/27 01:03:59;;;;;;;3.38;1.73;;;9.30;99.90;;;;;;5083364;27;20062;-68
2023/10/27 01:06:25;;;;;;;0.82;0.82;;;9.30;99.90;;;;;;5085668;28;20039;-67
2023/10/27 01:08:52;;;;;;;1.45;0.77;;;9.30;99.90;;;;;;5085426;27;20039;-67
2023/10/27 01:11:18;;;;;;;0.98;0.60;;;9.30;99.90;;;;;;5084777;28;20538;-68
2023/10/27 01:13:44;;;;;;;1.95;1.02;;;9.30;99.90;;;;;;5083792;28;20394;-67
2023/10/27 01:16:09;;;;;;;0.70;0.60;;;9.30;99.90;;;;;;5088674;28;20035;-67
2023/10/27 01:18:35;;;;;;;0.70;0.32;;;9.30;99.90;;;;;;5085626;28;20056;-67
2023/10/27 01:21:01;;;;;;;0.45;0.43;;;9.30;99.90;;;;;;5086077;27;20042;-67
2023/10/27 01:23:27;;;;;;;2.97;0.90;;;9.30;99.90;;;;;;5094685;28;20080;-67
2023/10/27 01:25:53;;;;;;;0.47;0.47;;;9.30;99.90;;;;;;5072586;27;20035;-67
2023/10/27 01:28:18;;;;;;;0.55;0.55;;;9.30;99.90;;;;;;5101487;27;20063;-67
2023/10/27 01:30:44;;;;;;;1.88;1.02;;;9.30;99.90;;;;;;5083967;27;20051;-67
2023/10/27 01:33:10;;;;;;;1.15;0.77;;;9.30;99.90;;;;;;5095254;27;20042;-67
2023/10/27 01:35:35;;;;;;;0.10;0.10;;;9.30;99.90;;;;;;5089641;27;20157;-67
2023/10/27 01:38:02;;;;;;;1.90;0.85;;;9.30;99.90;;;;;;5088352;28;20044;-67
2023/10/27 01:40:28;;;;;;;1.38;0.77;;;9.30;99.90;;;;;;5083089;27;20047;-67
2023/10/27 01:42:53;;;;;;;0.35;0.35;;;9.30;99.90;;;;;;5081436;28;20054;-67
2023/10/27 01:45:19;;;;;;;2.40;0.75;;;9.30;99.90;;;;;;5111487;27;20490;-67
2023/10/27 01:47:44;;;;;;;2.58;1.00;;;9.30;99.90;;;;;;5082853;28;20466;-67
2023/10/27 01:50:10;;;;;;;0.50;0.50;;;9.30;99.90;;;;;;5078428;28;20058;-67
2023/10/27 01:52:36;;;;;;;0.80;0.80;;;9.30;99.90;;;;;;5087957;28;20039;-67
2023/10/27 01:55:01;;;;;;;0.73;0.68;;;9.40;99.90;;;;;;5089851;27;20134;-67
2023/10/27 01:57:27;;;;;;;3.72;0.82;;;9.30;99.90;;;;;;5103608;27;20079;-68
2023/10/27 01:59:52;;;;;;;3.53;1.30;;;9.40;99.90;;;;;;5112970;27;20390;-68
2023/10/27 02:02:19;;;;;;;1.23;0.95;;;9.40;99.90;;;;;;5084220;28;20436;-67
2023/10/27 02:04:45;;;;;;;3.72;1.52;;;9.30;99.90;;;;;;5066006;28;21533;-67
2023/10/27 02:07:11;;;;;;;0.30;0.30;;;9.40;99.90;;;;;;5104759;27;20409;-68
2023/10/27 02:09:36;;;;;;;1.50;1.08;;;9.40;99.90;;;;;;5085203;28;20081;-67
2023/10/27 02:12:03;;;;;;;1.38;1.17;;;9.40;99.90;;;;;;5082693;27;20050;-67
2023/10/27 02:14:28;;;;;;;4.53;0.88;;;9.40;99.90;;;;;;5097095;27;20122;-67
2023/10/27 02:16:54;;;;;;;1.23;0.85;;;9.40;99.90;;;;;;5082512;27;20490;-67
2023/10/27 02:19:19;;;;;;;0.98;0.88;;;9.40;99.90;;;;;;5082715;28;20386;-68
2023/10/27 02:21:48;;;;;;;3.47;0.68;;;9.40;99.90;;;;;;5065382;27;20031;-67
2023/10/27 02:24:13;;;;;;;1.27;0.52;;;9.40;99.90;;;;;;5084882;28;20040;-67
2023/10/27 02:26:39;;;;;;;0.40;0.40;;;9.40;99.90;;;;;;5089644;27;20123;-67
2023/10/27 02:29:04;;;;;;;3.97;1.42;;;9.40;99.90;;;;;;5114823;27;20031;-67
2023/10/27 02:31:30;;;;;;;0.85;0.85;;;9.30;99.90;;;;;;5080561;28;20042;-67
2023/10/27 02:33:55;;;;;;;1.95;0.82;;;9.30;99.90;;;;;;5112681;27;20040;-67
2023/10/27 02:36:21;;;;;;;0.63;0.38;;;9.30;99.90;;;;;;5084409;28;20861;-67
2023/10/27 02:38:46;;;;;;;1.40;0.68;;;9.30;99.90;;;;;;5085763;27;20039;-67
2023/10/27 02:41:12;;;;;;;1.25;1.15;;;9.30;99.90;;;;;;5080966;28;20538;-67
2023/10/27 02:43:38;;;;;;;3.35;1.58;;;9.30;99.90;;;;;;5080128;28;20047;-67
2023/10/27 02:46:04;;;;;;;0.40;0.40;;;9.30;99.90;;;;;;5079112;28;20066;-67
2023/10/27 02:48:31;;;;;;;0.63;0.63;;;9.30;99.90;;;;;;5111338;27;20468;-67
2023/10/27 02:50:57;;;;;;;1.42;1.10;;;9.30;99.90;;;;;;5080727;27;20066;-67
2023/10/27 02:53:22;;;;;;;2.90;1.38;;;9.30;99.90;;;;;;5086088;28;20069;-67
2023/10/27 02:55:48;;;;;;;3.80;1.05;;;9.30;99.90;;;;;;5084475;27;20044;-67
2023/10/27 02:58:14;;;;;;;0.52;0.40;;;9.30;99.90;;;;;;5110762;27;20042;-67
2023/10/27 03:00:41;;;;;;;0.10;0.10;;;9.30;99.90;;;;;;5077679;28;20043;-67
2023/10/27 03:03:07;;;;;;;2.40;1.33;;;9.30;99.90;;;;;;5083638;28;20032;-67
2023/10/27 03:05:32;;;;;;;0.65;0.63;;;9.30;99.90;;;;;;5101859;28;20036;-67
2023/10/27 03:07:58;;;;;;;2.53;1.45;;;9.30;99.90;;;;;;5075679;28;20039;-67
2023/10/27 03:10:23;;;;;;;2.92;0.73;;;9.30;99.90;;;;;;5080912;28;20040;-67
2023/10/27 03:12:49;;;;;;;0.82;0.82;;;9.30;99.90;;;;;;5083689;28;20079;-67
2023/10/27 03:15:15;;;;;;;1.33;0.85;;;9.30;99.90;;;;;;5114024;27;20130;-67
2023/10/27 03:17:41;;;;;;;0.60;0.60;;;9.30;99.90;;;;;;5081624;28;20130;-67
2023/10/27 03:20:07;;;;;;;0.77;0.77;;;9.30;99.90;;;;;;5077482;28;20039;-67
2023/10/27 03:22:33;;;;;;;0.55;0.43;;;9.30;99.90;;;;;;5081671;27;20043;-67
2023/10/27 03:24:59;;;;;;;0.20;0.20;;;9.30;99.90;;;;;;5113079;27;20455;-67
2023/10/27 03:27:25;;;;;;;1.90;1.17;;;9.30;99.90;;;;;;5081955;28;20130;-67
2023/10/27 03:29:50;;;;;;;0.70;0.60;;;9.30;99.90;;;;;;5082334;28;20031;-67
2023/10/27 03:32:16;;;;;;;2.40;0.93;;;9.30;99.90;;;;;;5082232;27;20031;-67
2023/10/27 03:34:46;;;;;;;1.13;0.73;;;9.30;99.90;;;;;;5083594;28;20039;-67
2023/10/27 03:37:12;;;;;;;2.10;1.10;;;9.30;99.90;;;;;;5081375;28;20031;-67
2023/10/27 03:39:40;;;;;;;0.65;0.65;;;9.30;99.90;;;;;;5082234;28;20043;-67
2023/10/27 03:42:07;;;;;;;1.25;0.65;;;9.30;99.90;;;;;;5117745;27;20032;-67
2023/10/27 03:44:33;;;;;;;0.73;0.45;;;9.30;99.90;;;;;;5084226;28;20035;-66
2023/10/27 03:46:58;;;;;;;2.75;0.90;;;9.30;99.90;;;;;;5079603;28;20035;-67
2023/10/27 03:49:24;;;;;;;2.60;0.63;;;9.30;99.90;;;;;;5084831;27;20931;-67
2023/10/27 03:51:50;;;;;;;1.45;0.73;;;9.30;99.90;;;;;;5094449;27;20031;-67
2023/10/27 03:54:15;;;;;;;1.00;0.90;;;9.30;99.90;;;;;;5087997;27;20414;-67
2023/10/27 03:56:41;;;;;;;2.33;0.85;;;9.30;99.90;;;;;;5092053;27;20470;-67
2023/10/27 03:59:07;;;;;;;1.60;1.17;;;9.30;99.90;;;;;;5084815;27;20589;-67
2023/10/27 04:01:32;;;;;;;0.57;0.55;;;9.30;99.90;;;;;;5120234;27;20453;-67
2023/10/27 04:03:58;;;;;;;2.40;1.52;;;9.30;99.90;;;;;;5085251;27;20130;-67
2023/10/27 04:06:24;;;;;;;5.07;1.23;;;9.30;99.90;;;;;;5086228;27;20040;-67
2023/10/27 04:08:49;;;;;;;0.77;0.75;;;9.30;99.90;;;;;;5090160;27;20393;-67
2023/10/27 04:11:15;;;;;;;0.93;0.93;;;9.30;99.90;;;;;;5090852;27;20191;-67
2023/10/27 04:13:41;;;;;;;0.50;0.50;;;9.30;99.90;;;;;;5116785;27;20081;-67
2023/10/27 04:16:06;;;;;;;0.85;0.63;;;9.30;99.90;;;;;;5121252;27;20436;-67
2023/10/27 04:18:32;;;;;;;0.95;0.85;;;9.30;99.90;;;;;;5089225;27;20639;-67
2023/10/27 04:20:58;;;;;;;1.73;1.63;;;9.30;99.90;;;;;;5096305;27;20070;-67
2023/10/27 04:23:23;;;;;;;1.90;1.33;;;9.30;99.90;;;;;;5089882;27;20039;-67
2023/10/27 04:25:51;;;;;;;1.77;1.17;;;9.30;99.90;;;;;;5090824;27;20043;-67
2023/10/27 04:28:17;;;;;;;3.53;1.17;;;9.30;99.90;;;;;;5092653;27;20036;-67
2023/10/27 04:30:42;;;;;;;8.15;1.48;;;9.30;99.90;;;;;;5086939;27;20054;-67
2023/10/27 04:33:09;;;;;;;0.30;0.30;;;9.30;99.90;;;;;;5095754;27;20047;-68
2023/10/27 04:35:35;;;;;;;1.65;1.08;;;9.30;99.90;;;;;;5096270;27;20047;-68
2023/10/27 04:38:01;;;;;;;3.85;1.73;;;9.30;99.90;;;;;;5094369;27;20078;-67
2023/10/27 04:40:31;;;;;;;1.02;0.50;;;9.30;99.90;;;;;;5089263;27;20044;-67
2023/10/27 04:42:58;;;;;;;1.02;0.77;;;9.30;99.90;;;;;;5112263;27;20046;-68
2023/10/27 04:45:24;;;;;;;1.45;0.32;;;9.30;99.90;;;;;;5093144;27;20405;-67
2023/10/27 04:47:50;;;;;;;0.63;0.63;;;9.30;99.90;;;;;;5089873;27;20122;-67
2023/10/27 04:50:17;;;;;;;1.17;0.80;;;9.30;99.90;;;;;;5093167;27;20492;-67
2023/10/27 04:52:44;;;;;;;3.97;0.98;;;9.30;99.90;;;;;;5111521;27;20409;-67
2023/10/27 04:55:10;;;;;;;1.35;1.25;;;9.30;99.90;;;;;;5091609;27;20063;-67
2023/10/27 04:57:36;;;;;;;4.05;0.85;;;9.30;99.90;;;;;;5093787;27;20070;-67
2023/10/27 05:00:05;;;;;;;1.30;0.70;;;9.30;99.90;;;;;;5124961;27;20058;-67
2023/10/27 05:02:31;;;;;;;3.03;0.75;;;9.20;99.90;;;;;;5080390;28;20044;-67
2023/10/27 05:04:56;;;;;;;0.77;0.77;;;9.20;99.90;;;;;;5119389;27;20047;-67
2023/10/27 05:07:22;;;;;;;0.75;0.75;;;9.20;99.90;;;;;;5091403;27;20063;-67
2023/10/27 05:09:49;;;;;;;0.47;0.35;;;9.20;99.90;;;;;;5086392;28;20550;-67
2023/10/27 05:12:15;;;;;;;0.30;0.30;;;9.20;99.90;;;;;;5113320;27;20039;-67
2023/10/27 05:14:41;;;;;;;0.60;0.60;;;9.20;99.90;;;;;;5094209;28;20485;-67
2023/10/27 05:17:06;;;;;;;2.10;0.65;;;9.20;99.90;;;;;;5091036;28;20046;-67
2023/10/27 05:19:33;;;;;;;0.10;0.10;;;9.10;99.90;;;;;;5085950;28;20031;-68
2023/10/27 05:22:02;;;;;;;0.70;0.60;;;9.20;99.90;;;;;;5064652;28;20633;-67
2023/10/27 05:24:27;;;;;;;1.05;0.28;;;9.10;99.90;;;;;;5086822;28;20039;-68
2023/10/27 05:26:53;;;;;;;0.90;0.90;;;9.10;99.90;;;;;;5090211;28;20265;-67
2023/10/27 05:29:19;;;;;;;1.42;1.02;;;9.10;99.90;;;;;;5092048;28;20089;-67
2023/10/27 05:31:46;;;;;;;3.25;1.42;;;9.10;99.90;;;;;;5081644;28;20048;-67
2023/10/27 05:34:12;;;;;;;0.68;0.40;;;9.10;99.90;;;;;;5081028;28;20138;-67
2023/10/27 05:36:37;;;;;;;1.20;0.75;;;9.00;99.90;;;;;;5087418;28;20123;-67
2023/10/27 05:39:03;;;;;;;11.68;1.70;;;9.00;99.90;;;;;;5085874;28;20043;-67
2023/10/27 05:41:29;;;;;;;1.10;0.50;;;9.00;99.90;;;;;;5089623;28;20069;-67
2023/10/27 05:43:55;;;;;;;0.38;0.30;;;9.00;99.90;;;;;;5086965;28;20252;-68
2023/10/27 05:46:21;;;;;;;2.15;0.43;;;9.00;99.90;;;;;;5090869;28;20067;-68
2023/10/27 05:48:46;;;;;;;1.10;0.68;;;8.90;99.90;;;;;;5087959;28;20045;-67
2023/10/27 05:51:12;;;;;;;0.77;0.73;;;9.00;99.90;;;;;;5087999;28;20400;-67
2023/10/27 05:53:37;;;;;;;0.10;0.10;;;9.00;99.90;;;;;;5091762;28;20100;-67
2023/10/27 05:56:04;;;;;;;0.40;0.40;;;9.00;99.90;;;;;;5083938;28;20050;-67
2023/10/27 05:58:32;;;;;;;0.60;0.60;;;9.00;99.90;;;;;;5078993;28;20050;-67
2023/10/27 06:00:59;;;;;;;0.32;0.32;;;9.00;99.90;;;;;;5090317;28;20048;-68
2023/10/27 06:03:24;;;;;;;0.47;0.20;;;9.00;99.90;;;;;;5085904;28;20138;-67
2023/10/27 06:05:52;;;;;;;0.20;0.20;;;9.00;99.90;;;;;;5086587;28;20122;-67
2023/10/27 06:08:21;;;;;;;2.92;0.85;;;9.10;99.90;;;;;;5120429;27;20415;-68
2023/10/27 06:10:46;;;;;;;3.95;1.48;;;9.10;99.90;;;;;;5087270;28;20058;-68
2023/10/27 06:13:13;;;;;;;5.15;1.88;;;9.10;99.90;;;;;;5083841;28;20043;-68
2023/10/27 06:15:40;;;;;;;0.73;0.60;;;9.10;99.90;;;;;;5090206;28;20058;-69
2023/10/27 06:18:06;;;;;;;0.47;0.47;;;9.10;99.90;;;;;;5081284;28;20559;-68
2023/10/27 06:20:31;;;;;;;3.33;0.38;;;9.10;99.90;;;;;;5089137;28;20039;-67
2023/10/27 06:22:57;;;;;;;1.90;0.52;;;9.10;99.90;;;;;;5085703;28;20043;-68
2023/10/27 06:25:25;;;;;;;1.70;0.82;;;9.10;99.90;;;;;;5076176;28;20036;-68
2023/10/27 06:27:52;;;;;;;0.47;0.47;;;9.20;99.90;;;;;;5114734;27;20032;-68
2023/10/27 06:30:20;;;;;;;1.38;0.93;;;9.10;99.90;;;;;;5083158;28;20126;-68
2023/10/27 06:32:47;;;;;;;0.10;0.10;;;9.20;99.90;;;;;;5081323;28;20079;-67
2023/10/27 06:35:12;;;;;;;1.27;0.82;;;9.20;99.90;;;;;;5088599;28;20044;-67
2023/10/27 06:37:38;;;;;;;1.30;1.17;;;9.20;99.90;;;;;;5084526;27;20533;-68
2023/10/27 06:40:04;;;;;;;1.58;1.48;;;9.20;99.90;;;;;;5091221;28;20096;-68
2023/10/27 06:42:30;;;;;;;0.52;0.52;;;9.20;99.90;;;;;;5083187;28;20088;-68
2023/10/27 06:44:56;;;;;;;4.68;0.95;;;9.20;99.90;;;;;;5082075;28;20042;-68
2023/10/27 06:47:22;;;;;;;1.17;1.05;;;9.20;99.90;;;;;;5085238;28;20032;-67
2023/10/27 06:49:47;;;;;;;1.27;1.08;;;9.20;99.90;;;;;;5092654;28;20040;-67
2023/10/27 06:52:13;;;;;;;2.45;0.93;;;9.20;99.90;;;;;;5073115;28;20032;-67
2023/10/27 06:54:40;;;;;;;2.45;0.40;;;9.20;99.90;;;;;;5086574;28;20054;-68
2023/10/27 06:57:10;;;;;;;2.17;0.68;;;9.30;99.90;;;;;;5080608;28;20040;-68
2023/10/27 06:59:35;;;;;;;7.28;1.30;;;9.20;99.90;;;;;;5074577;28;20155;-67
2023/10/27 07:02:01;;;;;;;1.85;0.65;;;9.30;99.90;;;;;;5088730;28;20085;-67
2023/10/27 07:04:26;;;;;;;0.63;0.40;;;9.30;99.90;;;;;;5085597;28;20097;-68
2023/10/27 07:06:52;;;;;;;1.88;1.20;;;9.30;99.90;;;;;;5082618;28;20044;-67
2023/10/27 07:09:17;;;;;;;1.55;1.13;;;9.30;99.90;;;;;;5084645;28;20040;-67
2023/10/27 07:11:43;;;;;;;3.40;1.25;;;9.30;99.90;;;;;;5088273;28;20139;-67
2023/10/27 07:14:10;;;;;;;1.35;0.80;;;9.40;99.90;;;;;;5083177;28;20132;-67
2023/10/27 07:16:36;;;;;;;1.20;1.10;;;9.40;99.90;;;;;;5089007;28;20044;-67
2023/10/27 07:19:01;;;;;;;0.75;0.25;;;9.40;99.90;;;;;;5089364;28;20398;-67
2023/10/27 07:21:27;;;;;;;1.10;1.00;;;9.40;99.90;;;;;;5086023;28;20477;-67
2023/10/27 07:23:53;;;;;;;1.33;1.27;;;9.40;99.90;;;;;;5084845;28;20067;-68
2023/10/27 07:26:19;;;;;;;0.25;0.25;;;9.40;99.90;;;;;;5105879;27;20071;-67
2023/10/27 07:28:44;;;;;;;1.75;1.00;;;9.40;99.90;;;;;;5108167;27;20074;-68
2023/10/27 07:31:10;;;;;;;3.55;1.77;;;9.40;99.90;;;;;;5087975;28;20039;-67
2023/10/27 07:33:39;;;;;;;0.73;0.35;;;9.40;99.90;;;;;;5087736;28;20036;-68
2023/10/27 07:36:07;;;;;;;1.17;0.52;;;9.50;99.90;;;;;;5084970;28;20530;-68
2023/10/27 07:38:34;;;;;;;1.58;1.40;;;9.50;99.90;;;;;;5083597;28;20491;-67
2023/10/27 07:41:00;;;;;;;0.63;0.57;;;9.50;99.90;;;;;;5086042;28;20078;-68
2023/10/27 07:43:26;;;;;;;4.55;0.80;;;9.50;99.90;;;;;;5087974;28;20047;-67
2023/10/27 07:45:54;;;;;;;0.65;0.65;;;9.50;99.90;;;;;;5080291;28;20092;-67
2023/10/27 07:48:20;;;;;;;2.17;1.25;;;9.50;99.90;;;;;;5087667;28;20223;-67
2023/10/27 07:50:45;;;;;;;2.05;1.40;;;9.50;99.90;;;;;;5082868;28;20517;-67
2023/10/27 07:53:11;;;;;;;1.60;1.40;;;9.50;99.90;;;;;;5083999;28;20036;-68
2023/10/27 07:55:37;;;;;;;1.35;1.00;;;9.50;99.90;;;;;;5087128;28;20039;-68
2023/10/27 07:58:04;;;;;;;1.98;1.88;;;9.50;99.90;;;;;;5072013;28;20059;-68
2023/10/27 08:00:31;;;;;;;2.65;0.77;;;9.50;99.90;;;;;;5070896;28;20040;-67
2023/10/27 08:02:57;;;;;;;2.10;0.93;;;9.60;99.90;;;;;;5084347;28;20044;-67
2023/10/27 08:05:23;;;;;;;5.22;0.70;;;9.60;99.90;;;;;;5089977;28;20028;-67
2023/10/27 08:07:49;;;;;;;0.90;0.90;;;9.50;99.90;;;;;;5087556;28;20040;-68
2023/10/27 08:10:16;;;;;;;2.03;1.70;;;9.60;99.90;;;;;;5087777;28;20424;-67
2023/10/27 08:12:41;;;;;;;3.70;1.38;;;9.60;99.90;;;;;;5085118;28;20381;-68
2023/10/27 08:15:07;;;;;;;5.13;0.98;;;9.60;99.90;;;;;;5086520;28;20040;-67
2023/10/27 08:17:33;;;;;;;1.10;0.55;;;9.60;99.90;;;;;;5087399;28;20032;-67
2023/10/27 08:19:59;;;;;;;0.55;0.50;;;9.60;99.90;;;;;;5085516;28;20513;-67
2023/10/27 08:22:24;;;;;;;1.13;0.57;;;9.60;99.90;;;;;;5084447;28;20383;-67
2023/10/27 08:24:50;;;;;;;1.45;0.45;;;9.60;99.90;;;;;;5078327;28;20044;-67
2023/10/27 08:27:16;;;;;;;2.70;1.00;;;9.60;99.90;;;;;;5081519;28;20031;-66
2023/10/27 08:29:41;;;;;;;0.43;0.43;;;9.60;99.90;;;;;;5083680;28;20063;-66
2023/10/27 08:32:07;;;;;;;0.47;0.47;;;9.60;99.90;;;;;;5079978;28;20035;-66
2023/10/27 08:34:35;;;;;;;0.80;0.68;;;9.60;99.90;;;;;;5080523;28;20048;-66
2023/10/27 08:37:00;;;;;;;1.95;1.70;;;9.60;99.90;;;;;;5083519;28;20486;-66
2023/10/27 08:39:27;;;;;;;2.28;1.65;;;9.60;99.90;;;;;;5092263;28;20171;-66
2023/10/27 08:41:53;;;;;;;0.65;0.32;;;9.60;99.90;;;;;;5120121;27;20585;-67
2023/10/27 08:44:19;;;;;;;3.30;0.90;;;9.60;99.90;;;;;;5117208;27;20118;-66
2023/10/27 08:46:45;;;;;;;0.32;0.30;;;9.60;99.90;;;;;;5091168;28;20059;-66
2023/10/27 08:49:11;;;;;;;1.05;0.85;;;9.60;99.90;;;;;;5089051;28;20039;-66
2023/10/27 08:51:39;;;;;;;2.38;0.95;;;9.60;99.90;;;;;;5084759;28;20039;-66
2023/10/27 08:54:08;;;;;;;3.60;1.40;;;9.60;99.90;;;;;;5105214;28;20093;-66
2023/10/27 08:56:33;;;;;;;2.95;1.80;;;9.60;99.90;;;;;;5106081;28;20054;-67
2023/10/27 08:59:00;;;;;;;1.02;0.40;;;9.60;99.90;;;;;;5113696;27;20126;-67
2023/10/27 09:01:26;;;;;;;1.38;1.27;;;9.70;99.90;;;;;;5086945;27;20031;-67
2023/10/27 09:04:11;;;;;;;1.17;0.55;;;9.70;99.90;;;;;;5113685;27;20061;-67
2023/10/27 09:06:39;;;;;;;0.60;0.60;;;9.70;99.90;;;;;;5089000;28;20040;-66
2023/10/27 09:09:11;;;;;;;0.40;0.15;;;9.70;99.90;;;;;;5083759;27;20043;-67
2023/10/27 09:11:47;;;;;;;0.65;0.52;;;9.80;99.90;;;;;;5122165;27;20058;-67
2023/10/27 09:14:15;;;;;;;4.13;0.47;;;9.80;99.90;;;;;;5087977;28;20622;-66
2023/10/27 09:16:41;;;;;;;0.38;0.38;;;9.80;99.90;;;;;;5086390;28;20138;-66
2023/10/27 09:19:19;;;;;;;0.50;0.50;;;9.90;99.90;;;;;;5087131;28;20443;-67
2023/10/27 09:21:45;;;;;;;0.30;0.30;;;9.90;99.90;;;;;;5078886;28;20050;-66
2023/10/27 09:24:18;;;;;;;1.02;0.90;;;9.90;99.90;;;;;;5079783;28;20032;-67
2023/10/27 09:26:47;;;;;;;2.75;1.33;;;9.90;99.90;;;;;;5070568;28;20036;-67
2023/10/27 09:29:12;;;;;;;0.40;0.40;;;9.90;99.90;;;;;;5084163;28;20032;-66
2023/10/27 09:31:38;;;;;;;0.43;0.40;;;9.90;99.90;;;;;;5088152;28;20686;-67
2023/10/27 09:34:21;;;;;;;1.38;0.40;;;10.00;99.90;;;;;;5102611;27;20043;-66
2023/10/27 09:36:49;;;;;;;2.13;0.77;;;10.00;99.90;;;;;;5082689;28;20387;-66
2023/10/27 09:39:17;;;;;;;0.50;0.35;;;10.00;99.90;;;;;;5109912;28;20040;-67
2023/10/27 09:42:00;;;;;;;1.75;0.82;;;10.00;99.90;;;;;;5092220;28;20058;-67
2023/10/27 09:44:57;;;;;;;2.55;0.57;;;10.00;99.90;;;;;;5090341;28;20059;-66
2023/10/27 09:47:41;;;;;;;1.27;0.80;;;10.00;99.90;;;;;;5080671;28;20082;-67
2023/10/27 09:50:09;;;;;;;0.63;0.63;;;10.10;99.90;;;;;;5085852;28;20432;-67
2023/10/27 09:52:39;;;;;;;0.93;0.93;;;10.10;99.90;;;;;;5082389;28;20051;-67
2023/10/27 09:55:05;;;;;;;0.10;0.10;;;10.10;99.90;;;;;;5085513;28;20039;-66
2023/10/27 09:57:32;;;;;;;0.70;0.52;;;10.10;99.90;;;;;;5081891;28;20123;-66
2023/10/27 10:00:00;;;;;;;0.45;0.45;;;10.10;99.90;;;;;;5114834;27;20557;-67
2023/10/27 10:02:29;;;;;;;1.10;0.73;;;10.10;99.90;;;;;;5083056;28;20210;-67
2023/10/27 10:05:00;;;;;;;0.30;0.30;;;10.20;99.90;;;;;;5118369;27;20096;-66
2023/10/27 10:07:29;;;;;;;0.40;0.40;;;10.20;99.90;;;;;;5114896;27;20554;-66
2023/10/27 10:09:55;;;;;;;1.30;1.20;;;10.20;99.90;;;;;;5081561;28;20055;-67
2023/10/27 10:12:20;;;;;;;0.20;0.20;;;10.10;99.90;;;;;;5083980;28;20374;-67
2023/10/27 10:14:50;;;;;;;1.00;0.68;;;10.10;99.90;;;;;;5084297;28;20507;-67
2023/10/27 10:17:38;;;;;;;1.90;0.98;;;10.10;99.90;;;;;;5096091;28;20167;-68
2023/10/27 10:20:05;;;;;;;1.98;1.40;;;10.10;99.90;;;;;;5088263;28;20390;-67
2023/10/27 10:22:40;;;;;;;0.40;0.40;;;10.10;99.90;;;;;;5071225;28;20649;-67
2023/10/27 10:25:15;;;;;;;0.20;0.20;;;10.10;99.90;;;;;;5081870;28;20035;-67
2023/10/27 10:28:10;;;;;;;0.82;0.73;;;10.00;99.90;;;;;;5083391;27;20050;-67
2023/10/27 10:30:41;;;;;;;1.08;0.80;;;10.00;99.90;;;;;;5069296;28;20044;-67
2023/10/27 10:33:23;;;;;;;0.63;0.63;;;10.00;99.90;;;;;;5079757;27;20052;-67
2023/10/27 10:35:51;;;;;;;0.30;0.30;;;10.10;99.90;;;;;;5085840;28;20047;-67
2023/10/27 10:38:22;;;;;;;1.98;0.60;;;10.10;99.90;;;;;;5081135;28;20504;-67
2023/10/27 10:40:52;;;;;;;0.43;0.43;;;10.10;99.90;;;;;;5083218;27;20039;-67
2023/10/27 10:43:30;;;;;;;0.82;0.82;;;10.10;99.90;;;;;;5081155;28;20284;-67
2023/10/27 10:45:59;;;;;;;0.75;0.73;;;10.10;99.90;;;;;;5085944;28;20044;-67
2023/10/27 10:48:27;;;;;;;3.10;0.93;;;10.10;99.90;;;;;;5087717;28;20039;-67
2023/10/27 10:50:55;;;;;;;0.28;0.28;;;10.10;99.90;;;;;;5081279;27;20055;-67
2023/10/27 10:53:24;;;;;;;5.35;1.30;;;10.20;99.90;;;;;;5089008;27;20047;-67
2023/10/27 10:55:51;;;;;;;1.08;0.52;;;10.20;99.90;;;;;;5089405;28;20369;-67
2023/10/27 10:58:27;;;;;;;0.73;0.73;;;10.20;99.90;;;;;;5077217;27;20504;-67
2023/10/27 11:00:55;;;;;;;0.63;0.52;;;10.20;99.90;;;;;;5082742;27;20082;-66
2023/10/27 11:03:22;;;;;;;0.15;0.15;;;10.30;99.90;;;;;;5078214;27;20498;-67
2023/10/27 11:05:51;;;;;;;0.32;0.20;;;10.20;99.90;;;;;;5106545;27;20394;-67
2023/10/27 11:08:28;;;;;;;0.40;0.40;;;10.30;99.90;;;;;;5084455;28;20034;-67
2023/10/27 11:11:07;;;;;;;1.10;0.77;;;10.40;99.90;;;;;;5089888;27;20131;-67
2023/10/27 11:13:40;;;;;;;0.20;0.20;;;10.40;99.90;;;;;;5083766;27;20073;-67
2023/10/27 11:16:21;;;;;;;0.63;0.20;;;10.40;99.90;;;;;;5083679;28;20130;-67
2023/10/27 11:18:49;;;;;;;0.30;0.30;;;10.40;99.90;;;;;;5086879;28;20050;-68
2023/10/27 11:21:19;;;;;;;0.52;0.50;;;10.50;99.90;;;;;;5113934;27;20173;-68
2023/10/27 11:23:46;;;;;;;2.55;0.80;;;10.50;99.90;;;;;;5095519;27;20043;-68
2023/10/27 11:26:12;;;;;;;1.15;0.60;;;10.50;99.90;;;;;;5101555;27;20032;-68
2023/10/27 11:28:38;;;;;;;0.30;0.30;;;10.50;99.90;;;;;;5088187;28;20028;-67
2023/10/27 11:31:30;;;;;;;0.60;0.50;;;10.60;99.90;;;;;;5091307;28;20035;-68
2023/10/27 11:34:05;;;;;;;1.17;0.52;;;10.60;99.90;;;;;;5074651;28;20047;-67
2023/10/27 11:36:35;;;;;;;0.50;0.50;;;10.60;99.90;;;;;;5081060;28;20051;-64
2023/10/27 11:39:10;;;;;;;4.40;0.90;;;10.60;99.90;;;;;;5080383;28;20376;-67
2023/10/27 11:41:36;;;;;;;0.63;0.63;;;10.60;99.90;;;;;;5083250;28;20067;-67
2023/10/27 11:44:01;;;;;;;3.00;0.95;;;10.60;99.90;;;;;;5068955;28;20123;-68
2023/10/27 11:46:27;;;;;;;0.82;0.35;;;10.60;99.90;;;;;;5082389;28;20076;-67
2023/10/27 11:48:52;;;;;;;3.35;1.10;;;10.60;99.90;;;;;;5080820;28;20085;-67
2023/10/27 11:51:18;;;;;;;0.68;0.68;;;10.60;99.90;;;;;;5081566;28;20087;-67
2023/10/27 11:53:44;;;;;;;0.75;0.30;;;10.60;99.90;;;;;;5083705;28;20043;-66
2023/10/27 11:56:13;;;;;;;0.38;0.30;;;10.60;99.90;;;;;;5080430;28;20160;-67
2023/10/27 11:58:39;;;;;;;0.50;0.50;;;10.70;99.90;;;;;;5079794;28;20073;-67
2023/10/27 12:01:05;;;;;;;1.00;0.63;;;10.70;99.90;;;;;;5081436;28;20422;-66
2023/10/27 12:03:31;;;;;;;0.55;0.55;;;10.60;99.90;;;;;;5082810;28;20043;-67
2023/10/27 12:05:56;;;;;;;1.95;0.95;;;10.70;99.90;;;;;;5081465;28;20047;-67
2023/10/27 12:08:23;;;;;;;1.38;0.47;;;10.70;99.90;;;;;;5082529;28;20066;-67
2023/10/27 12:10:52;;;;;;;0.20;0.20;;;10.60;99.90;;;;;;5117265;27;20039;-68
2023/10/27 12:13:19;;;;;;;0.30;0.30;;;10.60;99.90;;;;;;5082342;28;20402;-68
2023/10/27 12:15:44;;;;;;;5.40;1.20;;;10.60;99.90;;;;;;5119861;27;20318;-68
2023/10/27 12:18:10;;;;;;;1.38;0.38;;;10.60;99.90;;;;;;5104785;27;20449;-68
2023/10/27 12:20:38;;;;;;;0.35;0.05;;;10.60;99.90;;;;;;5083556;28;20044;-67
2023/10/27 12:23:06;;;;;;;0.80;0.47;;;10.70;99.90;;;;;;5078897;28;20050;-67
2023/10/27 12:25:31;;;;;;;0.63;0.30;;;10.70;99.90;;;;;;5085238;28;20028;-66
2023/10/27 12:27:57;;;;;;;0.38;0.38;;;10.70;99.90;;;;;;5086461;28;20039;-66
2023/10/27 12:30:23;;;;;;;0.10;0.10;;;10.70;99.90;;;;;;5078729;28;20084;-66
2023/10/27 12:32:49;;;;;;;0.45;0.25;;;10.70;99.90;;;;;;5116148;27;20048;-66
2023/10/27 12:35:15;;;;;;;0.20;0.20;;;10.70;99.90;;;;;;5117904;27;20050;-66
2023/10/27 12:37:42;;;;;;;0.93;0.73;;;10.70;99.90;;;;;;5087054;28;20039;-67
2023/10/27 12:40:11;;;;;;;0.25;0.17;;;10.70;99.90;;;;;;5084349;27;20039;-66
2023/10/27 12:42:36;;;;;;;2.00;1.08;;;10.80;99.90;;;;;;5090442;28;20047;-66
2023/10/27 12:45:03;;;;;;;0.73;0.73;;;10.70;99.90;;;;;;5083622;27;20035;-66
2023/10/27 12:47:28;;;;;;;1.02;0.20;;;10.70;99.90;;;;;;5121360;27;20490;-67
2023/10/27 12:49:54;;;;;;;1.75;0.70;;;10.80;99.90;;;;;;5077913;28;20048;-67
2023/10/27 12:52:19;;;;;;;0.98;0.32;;;10.80;99.90;;;;;;5083071;27;20051;-67
2023/10/27 12:54:45;;;;;;;1.27;0.57;;;10.80;99.90;;;;;;5087339;28;20104;-66